Time;durP1;ratioP1;P1;durP2;ratioP2;P2;SDS_P1;SDS_P2;PMS_P1;PMS_P2;Temp;Humidity;BMP_temperature;BMP_pressure;BME280_temperature;BME280_humidity;BME280_pressure;Samples;Min_cycle;Max_cycle;Signal;HPM_P1;HPM_P2
2022/01/29 00:00:16;;;;;;;9.60;5.03;;;;;;;;;;5073830;28;20204;-81
2022/01/29 00:02:43;;;;;;;10.35;5.60;;;;;;;;;;5070715;28;20202;-79
2022/01/29 00:05:11;;;;;;;7.88;5.45;;;;;;;;;;5068586;28;20688;-81
2022/01/29 00:07:41;;;;;;;12.70;5.95;;;;;;;;;;5070745;28;20186;-81
2022/01/29 00:10:09;;;;;;;9.95;5.80;;;;;;;;;;5071494;28;20217;-79
2022/01/29 00:12:36;;;;;;;7.47;5.47;;;;;;;;;;5071016;28;20214;-80
2022/01/29 00:15:04;;;;;;;9.75;5.90;;;;;;;;;;5072995;28;20221;-80
2022/01/29 00:17:34;;;;;;;7.25;5.40;;;;;;;;;;5073350;28;20204;-79
2022/01/29 00:20:01;;;;;;;9.55;5.90;;;;;;;;;;5065965;28;20206;-80
2022/01/29 00:22:28;;;;;;;7.63;5.30;;;;;;;;;;5067323;28;20290;-78
2022/01/29 00:24:58;;;;;;;9.05;5.90;;;;;;;;;;5066348;28;20220;-79
2022/01/29 00:27:27;;;;;;;8.20;5.25;;;;;;;;;;5066781;28;20281;-80
2022/01/29 00:29:55;;;;;;;10.73;5.65;;;;;;;;;;5072545;28;20271;-81
2022/01/29 00:32:24;;;;;;;12.80;6.00;;;;;;;;;;5072704;28;20197;-80
2022/01/29 00:34:51;;;;;;;12.90;6.13;;;;;;;;;;5071299;28;20210;-78
2022/01/29 00:37:18;;;;;;;11.32;6.75;;;;;;;;;;5070384;28;20194;-81
2022/01/29 00:39:45;;;;;;;9.57;6.30;;;;;;;;;;5068711;28;20189;-79
2022/01/29 00:42:13;;;;;;;11.80;6.57;;;;;;;;;;5069440;28;20940;-80
2022/01/29 00:44:40;;;;;;;11.18;7.47;;;;;;;;;;5071473;28;20214;-81
2022/01/29 00:47:07;;;;;;;13.02;7.88;;;;;;;;;;5069181;28;20202;-81
2022/01/29 00:49:36;;;;;;;14.38;8.70;;;;;;;;;;5071262;28;20221;-81
2022/01/29 00:52:04;;;;;;;12.63;8.32;;;;;;;;;;5072937;28;20189;-81
2022/01/29 00:54:31;;;;;;;13.48;7.65;;;;;;;;;;5057543;28;20545;-80
2022/01/29 00:56:58;;;;;;;10.70;7.40;;;;;;;;;;5064537;28;20232;-79
2022/01/29 00:59:25;;;;;;;17.35;9.35;;;;;;;;;;5072824;28;20182;-81
2022/01/29 01:01:52;;;;;;;15.23;8.82;;;;;;;;;;5066509;28;20227;-81
2022/01/29 01:04:19;;;;;;;14.07;7.72;;;;;;;;;;5068599;28;20681;-80
2022/01/29 01:06:48;;;;;;;14.98;8.63;;;;;;;;;;5070951;28;20198;-80
2022/01/29 01:09:15;;;;;;;16.38;9.82;;;;;;;;;;5071637;28;20198;-81
2022/01/29 01:11:42;;;;;;;20.70;10.55;;;;;;;;;;5069829;28;20222;-82
2022/01/29 01:14:09;;;;;;;17.95;10.38;;;;;;;;;;5072234;28;20222;-79
2022/01/29 01:16:37;;;;;;;18.67;9.98;;;;;;;;;;5066656;28;20230;-78
2022/01/29 01:19:04;;;;;;;17.70;9.38;;;;;;;;;;5067483;28;20201;-79
2022/01/29 01:21:31;;;;;;;19.33;8.80;;;;;;;;;;5067980;28;20194;-79
2022/01/29 01:24:00;;;;;;;16.75;9.63;;;;;;;;;;5071753;28;20571;-78
2022/01/29 01:26:27;;;;;;;17.02;9.48;;;;;;;;;;5078087;28;20198;-81
2022/01/29 01:28:54;;;;;;;20.33;9.70;;;;;;;;;;5073121;28;20198;-79
2022/01/29 01:31:21;;;;;;;17.58;10.07;;;;;;;;;;5072016;28;20194;-81
2022/01/29 01:33:49;;;;;;;18.65;8.57;;;;;;;;;;5068829;28;20198;-80
2022/01/29 01:36:20;;;;;;;16.90;9.05;;;;;;;;;;5067221;28;20316;-80
2022/01/29 01:38:51;;;;;;;14.80;9.68;;;;;;;;;;5068248;28;20200;-79
2022/01/29 01:41:24;;;;;;;17.02;10.52;;;;;;;;;;5070559;28;20194;-81
2022/01/29 01:43:51;;;;;;;23.98;11.57;;;;;;;;;;5069286;28;20190;-81
2022/01/29 01:46:18;;;;;;;22.20;11.82;;;;;;;;;;5069480;28;20208;-81
2022/01/29 01:48:46;;;;;;;19.98;10.70;;;;;;;;;;5071317;28;20194;-83
2022/01/29 01:51:14;;;;;;;19.50;11.50;;;;;;;;;;5063906;28;20213;-82
2022/01/29 01:53:41;;;;;;;17.58;10.40;;;;;;;;;;5065664;28;20248;-80
2022/01/29 01:56:08;;;;;;;19.52;10.88;;;;;;;;;;5069593;28;20210;-79
2022/01/29 01:58:37;;;;;;;18.45;10.55;;;;;;;;;;5069252;28;20225;-82
2022/01/29 02:01:04;;;;;;;19.60;11.18;;;;;;;;;;5070697;28;20198;-80
2022/01/29 02:03:31;;;;;;;17.10;10.25;;;;;;;;;;5071178;28;20193;-83
2022/01/29 02:05:59;;;;;;;20.58;11.38;;;;;;;;;;5069242;28;20224;-79
2022/01/29 02:08:26;;;;;;;19.08;10.30;;;;;;;;;;5069262;28;20194;-80
2022/01/29 02:10:53;;;;;;;21.33;10.95;;;;;;;;;;5065530;28;20194;-81
2022/01/29 02:13:20;;;;;;;18.65;11.48;;;;;;;;;;5067341;28;20210;-80
2022/01/29 02:15:49;;;;;;;19.08;11.05;;;;;;;;;;5071217;28;20234;-78
2022/01/29 02:18:16;;;;;;;17.85;10.23;;;;;;;;;;5070386;28;20284;-82
2022/01/29 02:20:45;;;;;;;20.23;10.98;;;;;;;;;;5069088;28;20213;-79
2022/01/29 02:23:13;;;;;;;17.02;11.05;;;;;;;;;;5069747;28;20212;-81
2022/01/29 02:25:41;;;;;;;14.48;9.70;;;;;;;;;;5066041;28;20954;-79
2022/01/29 02:28:09;;;;;;;19.63;11.02;;;;;;;;;;5066070;28;20190;-79
2022/01/29 02:30:38;;;;;;;24.42;10.38;;;;;;;;;;5069063;28;20713;-78
2022/01/29 02:33:08;;;;;;;19.15;9.70;;;;;;;;;;5068315;28;20293;-80
2022/01/29 02:35:37;;;;;;;21.60;10.60;;;;;;;;;;5070511;28;20206;-81
2022/01/29 02:38:05;;;;;;;22.25;10.95;;;;;;;;;;5067945;28;20190;-79
2022/01/29 02:40:36;;;;;;;18.50;11.32;;;;;;;;;;5067199;28;20210;-78
2022/01/29 02:43:11;;;;;;;25.52;11.43;;;;;;;;;;5062304;28;20205;-80
2022/01/29 02:45:38;;;;;;;18.17;10.20;;;;;;;;;;5066556;28;20704;-79
2022/01/29 02:48:05;;;;;;;18.85;10.88;;;;;;;;;;5068606;28;20186;-77
2022/01/29 02:50:32;;;;;;;21.40;12.37;;;;;;;;;;5068601;28;20632;-79
2022/01/29 02:53:00;;;;;;;18.67;11.02;;;;;;;;;;5071198;28;20443;-81
2022/01/29 02:55:28;;;;;;;21.10;11.93;;;;;;;;;;5071511;28;20222;-79
2022/01/29 02:57:57;;;;;;;21.40;10.73;;;;;;;;;;5068243;28;20655;-81
2022/01/29 03:00:24;;;;;;;20.15;11.23;;;;;;;;;;5051438;28;20199;-80
2022/01/29 03:02:51;;;;;;;17.73;10.70;;;;;;;;;;5061413;28;20190;-79
2022/01/29 03:05:18;;;;;;;19.50;11.82;;;;;;;;;;5068682;28;20214;-79
2022/01/29 03:07:46;;;;;;;21.85;12.07;;;;;;;;;;5065315;28;20209;-79
2022/01/29 03:10:13;;;;;;;21.88;13.13;;;;;;;;;;5069126;28;20275;-78
2022/01/29 03:12:41;;;;;;;17.23;10.52;;;;;;;;;;5069026;28;20226;-79
2022/01/29 03:15:10;;;;;;;19.58;12.30;;;;;;;;;;5070680;28;20305;-82
2022/01/29 03:17:37;;;;;;;21.90;12.18;;;;;;;;;;5069762;28;20226;-82
2022/01/29 03:20:06;;;;;;;21.10;11.95;;;;;;;;;;5071546;28;20198;-80
2022/01/29 03:22:33;;;;;;;21.87;12.87;;;;;;;;;;5075295;28;20194;-81
2022/01/29 03:25:00;;;;;;;21.05;12.60;;;;;;;;;;5074472;28;20969;-80
2022/01/29 03:27:27;;;;;;;26.90;13.75;;;;;;;;;;5072426;28;20193;-79
2022/01/29 03:29:54;;;;;;;26.30;12.57;;;;;;;;;;5069335;28;20209;-79
2022/01/29 03:32:23;;;;;;;19.30;12.07;;;;;;;;;;5066503;28;20198;-78
2022/01/29 03:34:50;;;;;;;20.45;11.93;;;;;;;;;;5066920;28;20206;-78
2022/01/29 03:37:17;;;;;;;23.05;11.88;;;;;;;;;;5073435;28;20218;-82
2022/01/29 03:39:46;;;;;;;21.58;11.90;;;;;;;;;;5071274;28;20198;-80
2022/01/29 03:42:14;;;;;;;24.40;11.48;;;;;;;;;;5073787;28;20271;-79
2022/01/29 03:44:41;;;;;;;20.10;11.85;;;;;;;;;;5064061;28;20305;-80
2022/01/29 03:47:09;;;;;;;22.33;12.48;;;;;;;;;;5067174;28;20887;-81
2022/01/29 03:49:37;;;;;;;22.05;11.77;;;;;;;;;;5068109;28;20567;-77
2022/01/29 03:52:05;;;;;;;17.80;10.90;;;;;;;;;;5070814;28;20190;-80
2022/01/29 03:54:32;;;;;;;16.48;10.45;;;;;;;;;;5073235;28;20217;-81
2022/01/29 03:56:59;;;;;;;23.30;13.60;;;;;;;;;;5072783;28;20222;-79
2022/01/29 03:59:26;;;;;;;21.83;12.35;;;;;;;;;;5072619;28;20216;-80
2022/01/29 04:01:53;;;;;;;15.93;10.13;;;;;;;;;;5070269;28;20194;-81
2022/01/29 04:04:20;;;;;;;17.20;11.55;;;;;;;;;;5067809;28;20214;-80
2022/01/29 04:06:50;;;;;;;19.15;11.00;;;;;;;;;;5071533;28;20194;-81
2022/01/29 04:09:19;;;;;;;21.17;11.00;;;;;;;;;;5071573;28;20354;-80
2022/01/29 04:11:46;;;;;;;18.38;9.93;;;;;;;;;;5071940;28;20228;-80
2022/01/29 04:14:16;;;;;;;14.82;9.55;;;;;;;;;;5073859;28;20309;-80
2022/01/29 04:16:44;;;;;;;14.35;8.18;;;;;;;;;;5069896;28;20221;-79
2022/01/29 04:19:11;;;;;;;14.73;9.25;;;;;;;;;;5068672;28;20194;-78
2022/01/29 04:21:41;;;;;;;15.05;9.20;;;;;;;;;;5066653;28;20198;-78
2022/01/29 04:24:09;;;;;;;19.45;9.38;;;;;;;;;;5071607;28;20691;-79
2022/01/29 04:26:36;;;;;;;12.65;8.40;;;;;;;;;;5071026;28;20606;-80
2022/01/29 04:29:06;;;;;;;12.95;8.40;;;;;;;;;;5072048;28;20190;-79
2022/01/29 04:31:40;;;;;;;11.30;7.05;;;;;;;;;;5073320;28;20643;-80
2022/01/29 04:34:08;;;;;;;10.50;7.85;;;;;;;;;;5072198;28;20226;-79
2022/01/29 04:36:35;;;;;;;11.40;7.53;;;;;;;;;;5074549;28;20213;-81
2022/01/29 04:39:02;;;;;;;13.85;6.38;;;;;;;;;;5072132;28;20204;-80
2022/01/29 04:41:30;;;;;;;12.03;7.27;;;;;;;;;;5068921;28;20209;-80
2022/01/29 04:43:57;;;;;;;11.20;6.97;;;;;;;;;;5067537;28;20478;-79
2022/01/29 04:46:25;;;;;;;12.95;6.47;;;;;;;;;;5071478;28;20215;-79
2022/01/29 04:48:53;;;;;;;13.00;7.57;;;;;;;;;;5070904;28;20201;-80
2022/01/29 04:51:20;;;;;;;12.18;7.45;;;;;;;;;;5072623;28;20228;-79
2022/01/29 04:53:47;;;;;;;11.32;7.20;;;;;;;;;;5072615;28;20205;-80
2022/01/29 04:56:14;;;;;;;10.90;5.70;;;;;;;;;;5072068;28;20639;-80
2022/01/29 04:58:43;;;;;;;8.48;6.20;;;;;;;;;;5071320;28;20198;-80
2022/01/29 05:01:13;;;;;;;8.13;5.90;;;;;;;;;;5074509;28;20190;-80
2022/01/29 05:03:40;;;;;;;8.93;5.68;;;;;;;;;;5068360;28;20226;-79
2022/01/29 05:06:09;;;;;;;9.40;6.13;;;;;;;;;;5067803;28;20213;-78
2022/01/29 05:08:37;;;;;;;11.02;5.70;;;;;;;;;;5069039;28;20229;-80
2022/01/29 05:11:05;;;;;;;10.68;6.55;;;;;;;;;;5071844;28;20224;-81
2022/01/29 05:13:35;;;;;;;9.43;6.13;;;;;;;;;;5066800;28;20245;-79
2022/01/29 05:16:28;;;;;;;9.13;5.65;;;;;;;;;;5072312;28;20210;-81
2022/01/29 05:27:04;;;;;;;10.93;6.63;;;;;;;;;;5064270;28;20655;-80
2022/01/29 05:29:32;;;;;;;10.15;6.18;;;;;;;;;;5068006;28;20219;-80
2022/01/29 05:32:01;;;;;;;10.07;5.57;;;;;;;;;;5070654;28;20683;-78
2022/01/29 05:34:28;;;;;;;7.70;4.90;;;;;;;;;;5069146;28;20820;-79
2022/01/29 05:36:55;;;;;;;8.05;4.85;;;;;;;;;;5071091;28;20218;-80
2022/01/29 05:39:24;;;;;;;5.35;4.53;;;;;;;;;;5071736;28;20194;-81
2022/01/29 05:41:53;;;;;;;7.22;5.25;;;;;;;;;;5068411;28;20208;-79
2022/01/29 05:44:20;;;;;;;8.95;4.78;;;;;;;;;;5061432;28;20271;-80
2022/01/29 05:46:48;;;;;;;5.53;3.47;;;;;;;;;;5062932;28;20186;-80
2022/01/29 05:49:16;;;;;;;6.28;3.90;;;;;;;;;;5067949;28;20896;-79
2022/01/29 05:51:43;;;;;;;6.13;3.85;;;;;;;;;;5067862;28;20190;-80
2022/01/29 05:54:10;;;;;;;7.03;3.80;;;;;;;;;;5071276;28;20221;-79
2022/01/29 05:56:38;;;;;;;4.68;3.67;;;;;;;;;;5070735;28;20198;-78
2022/01/29 05:59:05;;;;;;;6.13;3.20;;;;;;;;;;5068545;28;20194;-79
2022/01/29 06:01:32;;;;;;;7.90;3.75;;;;;;;;;;5071910;28;20194;-77
2022/01/29 06:04:00;;;;;;;4.90;3.42;;;;;;;;;;5064980;28;20218;-77
2022/01/29 06:06:28;;;;;;;6.47;3.70;;;;;;;;;;5065356;28;20195;-77
2022/01/29 06:08:55;;;;;;;4.88;3.65;;;;;;;;;;5069061;28;20547;-78
2022/01/29 06:11:22;;;;;;;6.43;3.30;;;;;;;;;;5070825;28;20194;-80
2022/01/29 06:13:49;;;;;;;6.05;3.03;;;;;;;;;;5068263;28;20229;-79
2022/01/29 06:16:17;;;;;;;3.67;2.93;;;;;;;;;;5069181;28;20189;-79
2022/01/29 06:18:44;;;;;;;4.90;3.20;;;;;;;;;;5066807;28;20483;-79
2022/01/29 06:21:13;;;;;;;5.70;3.33;;;;;;;;;;5066886;28;20425;-81
2022/01/29 06:23:43;;;;;;;5.30;3.55;;;;;;;;;;5067279;28;20280;-79
2022/01/29 06:26:11;;;;;;;4.13;3.40;;;;;;;;;;5070685;28;20675;-79
2022/01/29 06:28:38;;;;;;;3.03;2.70;;;;;;;;;;5070032;28;20940;-79
2022/01/29 06:31:06;;;;;;;5.65;3.65;;;;;;;;;;5071452;28;20444;-80
2022/01/29 06:33:34;;;;;;;4.78;3.25;;;;;;;;;;5069623;28;20198;-78
2022/01/29 06:36:01;;;;;;;7.25;2.95;;;;;;;;;;5060361;28;20229;-80
2022/01/29 06:38:28;;;;;;;3.78;3.28;;;;;;;;;;5052832;28;20222;-79
2022/01/29 06:40:56;;;;;;;4.40;4.00;;;;;;;;;;5053117;28;20199;-79
2022/01/29 06:43:24;;;;;;;6.25;4.18;;;;;;;;;;5065908;28;20851;-77
2022/01/29 06:45:51;;;;;;;4.10;3.60;;;;;;;;;;5067375;28;20213;-79
2022/01/29 06:48:18;;;;;;;4.20;3.28;;;;;;;;;;5068265;28;20206;-77
2022/01/29 06:50:45;;;;;;;4.03;3.63;;;;;;;;;;5070687;28;20201;-79
2022/01/29 06:53:12;;;;;;;5.05;3.80;;;;;;;;;;5071276;28;20194;-78
2022/01/29 06:55:40;;;;;;;4.60;3.78;;;;;;;;;;5073386;28;20221;-78
2022/01/29 06:58:08;;;;;;;4.23;3.57;;;;;;;;;;5073009;28;20701;-81
2022/01/29 07:00:35;;;;;;;4.07;3.55;;;;;;;;;;5076346;28;20448;-79
2022/01/29 07:03:02;;;;;;;5.57;3.63;;;;;;;;;;5076324;28;20196;-77
2022/01/29 07:05:29;;;;;;;5.10;3.40;;;;;;;;;;5069961;28;20444;-80
2022/01/29 07:07:57;;;;;;;4.93;3.85;;;;;;;;;;5065311;28;20448;-81
2022/01/29 07:10:25;;;;;;;4.37;3.90;;;;;;;;;;5073390;28;20194;-77
2022/01/29 07:12:52;;;;;;;4.72;3.15;;;;;;;;;;5071745;28;20502;-78
2022/01/29 07:15:21;;;;;;;4.30;3.50;;;;;;;;;;5072383;28;20198;-77
2022/01/29 07:17:48;;;;;;;4.87;3.33;;;;;;;;;;5070648;28;20218;-78
2022/01/29 07:20:15;;;;;;;4.97;3.75;;;;;;;;;;5071819;28;20449;-77
2022/01/29 07:22:45;;;;;;;4.47;3.60;;;;;;;;;;5067270;28;20671;-78
2022/01/29 07:25:12;;;;;;;5.10;3.80;;;;;;;;;;5066271;28;20479;-77
2022/01/29 07:27:39;;;;;;;4.93;3.72;;;;;;;;;;5055032;28;20198;-78
2022/01/29 07:30:10;;;;;;;3.70;3.20;;;;;;;;;;5052049;28;20194;-78
2022/01/29 07:32:44;;;;;;;4.27;3.67;;;;;;;;;;5057628;28;20440;-78
2022/01/29 07:35:12;;;;;;;3.88;3.40;;;;;;;;;;5065670;28;20496;-77
2022/01/29 07:37:39;;;;;;;4.45;3.90;;;;;;;;;;5072084;28;20218;-78
2022/01/29 07:40:07;;;;;;;4.80;4.00;;;;;;;;;;5065077;28;20209;-79
2022/01/29 07:42:34;;;;;;;3.88;3.38;;;;;;;;;;5067343;28;20429;-77
2022/01/29 07:45:01;;;;;;;3.60;3.07;;;;;;;;;;5069462;28;20206;-78
2022/01/29 07:47:28;;;;;;;5.63;3.30;;;;;;;;;;5071720;28;20512;-77
2022/01/29 07:49:57;;;;;;;5.03;3.63;;;;;;;;;;5065742;28;20191;-75
2022/01/29 07:52:24;;;;;;;3.87;3.40;;;;;;;;;;5068925;28;20463;-76
2022/01/29 07:54:51;;;;;;;5.00;3.83;;;;;;;;;;5070027;28;20460;-79
2022/01/29 07:57:19;;;;;;;3.80;3.37;;;;;;;;;;5072251;28;20198;-78
2022/01/29 07:59:47;;;;;;;5.13;3.60;;;;;;;;;;5065279;28;20484;-77
2022/01/29 08:02:14;;;;;;;3.93;3.10;;;;;;;;;;5069564;28;20439;-77
2022/01/29 08:04:44;;;;;;;4.67;3.93;;;;;;;;;;5071378;28;20476;-78
2022/01/29 08:07:12;;;;;;;4.07;3.67;;;;;;;;;;5069798;28;20460;-78
2022/01/29 08:09:39;;;;;;;4.50;4.00;;;;;;;;;;5073156;28;20941;-79
2022/01/29 08:12:07;;;;;;;5.13;4.00;;;;;;;;;;5067982;28;20225;-79
2022/01/29 08:14:34;;;;;;;6.00;5.13;;;;;;;;;;5072680;28;20483;-78
2022/01/29 08:17:01;;;;;;;5.37;4.37;;;;;;;;;;5070145;28;20432;-78
2022/01/29 08:19:28;;;;;;;4.47;3.93;;;;;;;;;;5069756;28;20484;-77
2022/01/29 08:21:55;;;;;;;4.70;4.20;;;;;;;;;;5068962;28;20453;-79
2022/01/29 08:24:24;;;;;;;5.30;4.00;;;;;;;;;;5071318;28;20463;-78
2022/01/29 08:26:51;;;;;;;4.87;4.00;;;;;;;;;;5071058;28;20551;-81
2022/01/29 08:29:18;;;;;;;6.30;5.00;;;;;;;;;;5072357;28;20768;-79
2022/01/29 08:31:45;;;;;;;6.50;4.53;;;;;;;;;;5071090;28;20467;-78
2022/01/29 08:34:12;;;;;;;6.63;5.50;;;;;;;;;;5073112;28;20472;-78
2022/01/29 08:36:40;;;;;;;6.17;4.70;;;;;;;;;;5067316;28;20452;-76
2022/01/29 08:39:07;;;;;;;4.40;3.90;;;;;;;;;;5067561;28;20476;-77
2022/01/29 08:41:36;;;;;;;4.93;4.20;;;;;;;;;;5064566;28;20428;-76
2022/01/29 08:44:03;;;;;;;5.07;4.00;;;;;;;;;;5071788;28;21032;-76
2022/01/29 08:46:30;;;;;;;6.27;5.60;;;;;;;;;;5071175;28;20447;-78
2022/01/29 08:48:57;;;;;;;5.60;4.23;;;;;;;;;;5072786;28;20456;-83
2022/01/29 08:51:24;;;;;;;4.30;3.67;;;;;;;;;;5067702;28;20451;-79
2022/01/29 08:53:52;;;;;;;4.17;3.77;;;;;;;;;;5067443;28;20459;-78
2022/01/29 08:56:19;;;;;;;4.93;3.77;;;;;;;;;;5067668;28;20786;-77
2022/01/29 08:58:47;;;;;;;4.17;3.77;;;;;;;;;;5067230;28;20476;-79
2022/01/29 09:01:15;;;;;;;4.20;3.60;;;;;;;;;;5069108;28;20491;-77
2022/01/29 09:03:42;;;;;;;3.93;3.53;;;;;;;;;;5070807;28;20440;-79
2022/01/29 09:06:09;;;;;;;4.40;3.93;;;;;;;;;;5072299;28;20444;-78
2022/01/29 09:08:36;;;;;;;3.40;3.10;;;;;;;;;;5072512;28;20444;-80
2022/01/29 09:11:04;;;;;;;7.90;4.43;;;;;;;;;;5070731;28;20464;-79
2022/01/29 09:13:31;;;;;;;4.47;3.50;;;;;;;;;;5068296;28;20476;-79
2022/01/29 09:15:59;;;;;;;6.13;4.43;;;;;;;;;;5072197;28;20456;-78
2022/01/29 09:18:27;;;;;;;7.67;5.57;;;;;;;;;;5066056;28;20487;-77
2022/01/29 09:20:54;;;;;;;7.50;6.00;;;;;;;;;;5066068;28;20963;-80
2022/01/29 09:23:21;;;;;;;6.03;3.60;;;;;;;;;;5060848;28;20818;-77
2022/01/29 09:25:48;;;;;;;4.20;3.80;;;;;;;;;;5070600;28;20819;-79
2022/01/29 09:28:15;;;;;;;4.33;3.10;;;;;;;;;;5069091;28;20945;-81
2022/01/29 09:30:43;;;;;;;3.53;3.13;;;;;;;;;;5070944;28;20531;-76
2022/01/29 09:33:12;;;;;;;6.30;5.23;;;;;;;;;;5067105;28;20526;-78
2022/01/29 09:35:39;;;;;;;3.63;3.33;;;;;;;;;;5072081;28;20456;-78
2022/01/29 09:38:07;;;;;;;4.80;3.50;;;;;;;;;;5071227;28;20483;-78
2022/01/29 09:40:34;;;;;;;4.10;3.20;;;;;;;;;;5063418;28;20545;-77
2022/01/29 09:43:03;;;;;;;3.50;3.20;;;;;;;;;;5065407;28;20432;-80
2022/01/29 09:45:30;;;;;;;4.40;3.10;;;;;;;;;;5069455;28;20464;-77
2022/01/29 09:48:02;;;;;;;3.37;3.07;;;;;;;;;;5070516;28;21079;-79
2022/01/29 09:50:31;;;;;;;3.20;2.90;;;;;;;;;;5066311;28;20455;-78
2022/01/29 09:52:58;;;;;;;5.00;3.47;;;;;;;;;;5068898;28;20452;-78
2022/01/29 09:55:26;;;;;;;4.50;3.43;;;;;;;;;;5071366;28;20476;-77
2022/01/29 09:57:53;;;;;;;3.13;2.83;;;;;;;;;;5069725;28;20432;-77
2022/01/29 10:00:21;;;;;;;3.13;2.83;;;;;;;;;;5065740;28;20789;-78
2022/01/29 10:03:03;;;;;;;3.00;2.80;;;;;;;;;;5067007;28;20476;-79
2022/01/29 10:05:36;;;;;;;2.87;2.60;;;;;;;;;;5070273;28;20471;-77
2022/01/29 10:08:04;;;;;;;3.90;3.50;;;;;;;;;;5069677;28;20464;-77
2022/01/29 10:10:31;;;;;;;6.63;5.10;;;;;;;;;;5069689;28;20456;-77
2022/01/29 10:12:58;;;;;;;4.70;3.87;;;;;;;;;;5070665;28;20456;-77
2022/01/29 10:15:26;;;;;;;3.70;3.40;;;;;;;;;;5051547;28;20457;-77
2022/01/29 10:17:55;;;;;;;3.33;3.03;;;;;;;;;;5053927;28;20543;-77
2022/01/29 10:20:23;;;;;;;2.83;2.63;;;;;;;;;;5068102;28;20456;-78
2022/01/29 10:22:53;;;;;;;4.33;3.30;;;;;;;;;;5059784;28;20456;-78
2022/01/29 10:25:21;;;;;;;3.33;2.93;;;;;;;;;;5061014;28;20448;-79
2022/01/29 10:28:03;;;;;;;3.83;3.53;;;;;;;;;;5057794;28;20487;-78
2022/01/29 10:30:30;;;;;;;3.50;3.20;;;;;;;;;;5067747;28;20435;-78
2022/01/29 10:33:16;;;;;;;4.27;2.90;;;;;;;;;;5067252;28;20432;-77
2022/01/29 10:35:44;;;;;;;3.33;2.70;;;;;;;;;;5063168;28;20487;-79
2022/01/29 10:38:12;;;;;;;3.97;2.37;;;;;;;;;;5073063;28;20472;-78
2022/01/29 10:40:39;;;;;;;4.53;2.60;;;;;;;;;;5070594;28;20444;-79
2022/01/29 10:43:07;;;;;;;4.20;3.30;;;;;;;;;;5066731;28;20428;-78
2022/01/29 10:45:38;;;;;;;3.40;2.70;;;;;;;;;;5069008;28;20448;-78
2022/01/29 10:48:06;;;;;;;9.00;4.63;;;;;;;;;;5073230;28;20457;-77
2022/01/29 10:50:34;;;;;;;4.77;3.00;;;;;;;;;;5062551;28;20541;-77
2022/01/29 10:53:16;;;;;;;3.00;2.00;;;;;;;;;;5059768;28;20424;-76
2022/01/29 10:55:58;;;;;;;4.77;2.80;;;;;;;;;;5063957;28;21006;-78
2022/01/29 10:58:26;;;;;;;3.33;2.17;;;;;;;;;;5064299;28;20480;-79
2022/01/29 11:01:09;;;;;;;2.17;1.97;;;;;;;;;;5067669;28;20463;-78
2022/01/29 11:03:36;;;;;;;2.90;2.10;;;;;;;;;;5072325;28;20459;-78
2022/01/29 11:06:03;;;;;;;2.37;1.80;;;;;;;;;;5061744;28;20540;-78
2022/01/29 11:08:30;;;;;;;4.23;2.60;;;;;;;;;;5058748;28;20875;-77
2022/01/29 11:10:58;;;;;;;2.40;1.73;;;;;;;;;;5071534;28;20428;-78
2022/01/29 11:13:27;;;;;;;5.53;2.57;;;;;;;;;;5058753;28;21017;-77
2022/01/29 11:15:54;;;;;;;2.80;1.50;;;;;;;;;;5060785;28;20480;-77
2022/01/29 11:18:21;;;;;;;6.40;2.20;;;;;;;;;;5065358;28;20810;-78
2022/01/29 11:20:49;;;;;;;3.90;1.97;;;;;;;;;;5068313;28;20439;-79
2022/01/29 11:23:16;;;;;;;2.57;1.80;;;;;;;;;;5071563;28;20440;-79
2022/01/29 11:25:43;;;;;;;2.50;1.90;;;;;;;;;;5072722;28;20944;-77
2022/01/29 11:28:13;;;;;;;3.10;1.80;;;;;;;;;;5070799;28;20436;-79
2022/01/29 11:30:43;;;;;;;2.90;1.80;;;;;;;;;;5074451;28;20493;-80
2022/01/29 11:33:12;;;;;;;2.60;1.70;;;;;;;;;;5072863;28;20933;-79
2022/01/29 11:35:51;;;;;;;2.83;1.47;;;;;;;;;;5070683;28;20464;-80
2022/01/29 11:38:28;;;;;;;2.30;1.63;;;;;;;;;;5067267;28;20440;-79
2022/01/29 11:40:58;;;;;;;2.00;1.67;;;;;;;;;;5068393;28;20447;-79
2022/01/29 11:43:26;;;;;;;2.67;1.77;;;;;;;;;;5070670;28;20527;-78
2022/01/29 11:45:58;;;;;;;3.97;1.70;;;;;;;;;;5071414;28;20485;-79
2022/01/29 11:48:50;;;;;;;2.33;1.50;;;;;;;;;;5072728;28;20440;-77
2022/01/29 11:51:37;;;;;;;1.57;1.40;;;;;;;;;;5069145;28;20878;-82
2022/01/29 11:54:06;;;;;;;1.13;1.00;;;;;;;;;;5065990;28;20499;-80
2022/01/29 11:56:34;;;;;;;1.60;1.40;;;;;;;;;;5068628;28;20428;-78
2022/01/29 11:59:16;;;;;;;3.97;1.40;;;;;;;;;;5057264;28;20559;-82
2022/01/29 12:01:43;;;;;;;2.33;1.73;;;;;;;;;;5069046;28;20460;-81
2022/01/29 12:04:10;;;;;;;3.63;1.87;;;;;;;;;;5070871;28;20476;-75
2022/01/29 12:06:42;;;;;;;2.33;1.90;;;;;;;;;;5073763;28;20803;-79
2022/01/29 12:09:26;;;;;;;1.90;1.70;;;;;;;;;;5058077;28;20471;-78
2022/01/29 12:12:08;;;;;;;2.40;1.77;;;;;;;;;;5070860;28;20549;-79
2022/01/29 12:14:35;;;;;;;7.40;2.37;;;;;;;;;;5072437;28;20448;-79
2022/01/29 12:17:05;;;;;;;2.13;1.93;;;;;;;;;;5067189;28;20447;-79
2022/01/29 12:19:35;;;;;;;2.27;1.80;;;;;;;;;;5069730;28;20504;-77
2022/01/29 12:22:08;;;;;;;2.30;2.10;;;;;;;;;;5070936;28;20464;-78
2022/01/29 12:24:37;;;;;;;2.20;1.90;;;;;;;;;;5072805;28;20467;-78
2022/01/29 12:27:04;;;;;;;2.30;2.10;;;;;;;;;;5070326;28;20453;-79
2022/01/29 12:29:32;;;;;;;2.00;1.80;;;;;;;;;;5070659;28;20515;-79
2022/01/29 12:31:59;;;;;;;2.00;1.80;;;;;;;;;;5055439;28;20456;-78
2022/01/29 12:34:28;;;;;;;2.30;1.87;;;;;;;;;;5053603;28;20456;-76
2022/01/29 12:37:09;;;;;;;3.80;2.30;;;;;;;;;;5056991;28;20541;-76
2022/01/29 12:39:38;;;;;;;2.33;1.97;;;;;;;;;;5063476;28;20506;-77
2022/01/29 12:42:12;;;;;;;3.70;2.30;;;;;;;;;;5064079;28;20525;-77
2022/01/29 12:44:40;;;;;;;2.00;1.80;;;;;;;;;;5060288;28;20553;-77
2022/01/29 12:47:07;;;;;;;1.83;1.70;;;;;;;;;;5064743;28;20433;-77
2022/01/29 12:49:40;;;;;;;2.10;1.90;;;;;;;;;;5050561;28;20433;-77
2022/01/29 12:52:08;;;;;;;2.20;2.00;;;;;;;;;;5060055;28;20433;-78
2022/01/29 12:54:36;;;;;;;2.70;1.60;;;;;;;;;;5063332;28;20902;-78
2022/01/29 12:57:06;;;;;;;1.80;1.70;;;;;;;;;;5059283;28;20547;-77
2022/01/29 12:59:35;;;;;;;2.40;1.70;;;;;;;;;;5063523;28;20999;-77
2022/01/29 13:02:04;;;;;;;2.87;2.67;;;;;;;;;;5053227;28;20444;-78
2022/01/29 13:04:32;;;;;;;3.10;2.00;;;;;;;;;;5050112;28;20489;-76
2022/01/29 13:07:01;;;;;;;2.87;2.47;;;;;;;;;;5068118;28;20784;-77
2022/01/29 13:09:28;;;;;;;1.93;1.70;;;;;;;;;;5064443;28;20452;-76
2022/01/29 13:11:57;;;;;;;1.93;1.73;;;;;;;;;;5061343;28;20475;-78
2022/01/29 13:14:26;;;;;;;1.77;1.53;;;;;;;;;;5062354;28;20848;-78
2022/01/29 13:16:55;;;;;;;2.83;1.90;;;;;;;;;;5065384;28;20933;-77
2022/01/29 13:19:22;;;;;;;1.43;1.33;;;;;;;;;;5066935;28;20483;-77
2022/01/29 13:21:50;;;;;;;1.60;1.50;;;;;;;;;;5069683;28;21008;-76
2022/01/29 13:24:32;;;;;;;1.67;1.57;;;;;;;;;;5070884;28;20853;-77
2022/01/29 13:27:01;;;;;;;2.40;1.57;;;;;;;;;;5068468;28;20444;-76
2022/01/29 13:29:33;;;;;;;1.90;1.30;;;;;;;;;;5069786;28;21207;-76
2022/01/29 13:32:01;;;;;;;2.80;1.67;;;;;;;;;;5066301;28;20468;-77
2022/01/29 13:34:28;;;;;;;1.80;1.57;;;;;;;;;;5065162;28;20456;-77
2022/01/29 13:36:55;;;;;;;1.87;1.77;;;;;;;;;;5066123;28;20817;-78
2022/01/29 13:39:25;;;;;;;3.33;2.47;;;;;;;;;;5069556;28;20472;-77
2022/01/29 13:42:06;;;;;;;1.70;1.60;;;;;;;;;;5070249;28;20494;-76
2022/01/29 13:44:35;;;;;;;3.07;2.33;;;;;;;;;;5065152;28;20582;-76
2022/01/29 13:47:26;;;;;;;2.43;1.80;;;;;;;;;;5067989;28;20471;-75
2022/01/29 13:49:54;;;;;;;2.17;1.70;;;;;;;;;;5050600;28;20519;-78
2022/01/29 13:52:22;;;;;;;2.97;1.90;;;;;;;;;;5064471;28;20448;-78
2022/01/29 13:54:50;;;;;;;2.47;1.70;;;;;;;;;;5067500;28;20939;-77
2022/01/29 13:57:17;;;;;;;5.27;2.50;;;;;;;;;;5070056;28;20436;-77
2022/01/29 14:00:07;;;;;;;2.47;2.20;;;;;;;;;;5070767;28;20483;-77
2022/01/29 14:02:48;;;;;;;3.80;2.37;;;;;;;;;;5046478;28;20438;-77
2022/01/29 14:05:22;;;;;;;2.70;2.50;;;;;;;;;;5042320;28;20476;-76
2022/01/29 14:07:50;;;;;;;4.90;2.03;;;;;;;;;;5045335;28;20448;-76
2022/01/29 14:10:18;;;;;;;3.20;2.33;;;;;;;;;;5041631;28;20521;-77
2022/01/29 14:12:48;;;;;;;2.20;2.00;;;;;;;;;;5045096;28;20464;-77
2022/01/29 14:15:17;;;;;;;3.20;2.37;;;;;;;;;;5044509;28;20905;-78
2022/01/29 14:17:44;;;;;;;3.53;2.83;;;;;;;;;;5045909;28;20463;-79
2022/01/29 14:20:14;;;;;;;3.30;2.70;;;;;;;;;;5052919;28;20491;-79
2022/01/29 14:22:42;;;;;;;4.33;2.57;;;;;;;;;;5068248;28;20468;-81
2022/01/29 14:25:11;;;;;;;4.00;2.60;;;;;;;;;;5064515;28;20448;-76
2022/01/29 14:27:38;;;;;;;2.37;2.00;;;;;;;;;;5066898;28;20519;-77
2022/01/29 14:30:06;;;;;;;3.90;2.07;;;;;;;;;;5069497;28;20467;-78
2022/01/29 14:32:35;;;;;;;3.30;2.50;;;;;;;;;;5070364;28;20451;-79
2022/01/29 14:35:03;;;;;;;4.30;2.80;;;;;;;;;;5069503;28;20543;-77
2022/01/29 14:37:30;;;;;;;2.90;2.43;;;;;;;;;;5066731;28;20458;-76
2022/01/29 14:39:57;;;;;;;3.13;2.40;;;;;;;;;;5068902;28;20480;-76
2022/01/29 14:42:28;;;;;;;5.43;3.17;;;;;;;;;;5066964;28;20803;-75
2022/01/29 14:44:55;;;;;;;7.13;2.90;;;;;;;;;;5066210;28;20543;-78
2022/01/29 14:47:22;;;;;;;7.03;3.50;;;;;;;;;;5069695;28;20444;-79
2022/01/29 14:49:51;;;;;;;7.03;3.13;;;;;;;;;;5064579;28;20550;-79
2022/01/29 14:52:18;;;;;;;2.80;2.60;;;;;;;;;;5069580;28;20793;-77